This is the latest recevied weather packets stored in our database for station/object KE6LRO. If no packets are shown the sender has not sent any weather packets the latest 10 day(s).
| Time | Temp. | Humidity | Pressure | Rain* | Wind** | Luminosity | Snow |
|---|---|---|---|---|---|---|---|
| 1778084154 | 10° C | 49% | 1021.1 hPa | 0 mm | - | 536 W/m² | - |
| 1778083846 | 9.44° C | 49% | 1021.1 hPa | 0 mm | - | 522 W/m² | - |
| 1778083544 | 10° C | 47% | 1021.3 hPa | 0 mm | - | 511 W/m² | - |
| 1778083240 | 10.56° C | 49% | 1021.4 hPa | 0 mm | - | 494 W/m² | - |
| 1778082939 | 8.89° C | 50% | 1021.4 hPa | 0 mm | - | 459 W/m² | - |
| 1778081835 | 5.56° C | 68% | 1021.8 hPa | 0 mm | - | 219 W/m² | - |
| 1778081533 | 5.56° C | 69% | 1021.7 hPa | 0 mm | - | 287 W/m² | - |
| 1778081229 | 5.56° C | 67% | 1022 hPa | 0 mm | - | 154 W/m² | - |
| 1778080927 | 6.11° C | 65% | 1021.8 hPa | 0 mm | - | 211 W/m² | - |
| 1778080626 | 5.56° C | 66% | 1022 hPa | 0 mm | - | 368 W/m² | - |
| 1778080322 | 4.44° C | 77% | 1022.2 hPa | 0 mm | - | 271 W/m² | - |
| 1778080018 | 2.78° C | 84% | 1022.1 hPa | 0 mm | - | 319 W/m² | - |
| 1778079716 | 2.22° C | 84% | 1022.1 hPa | 0 mm | - | 95 W/m² | - |
| 1778079412 | 2.22° C | 84% | 1022.1 hPa | 0 mm | - | 89 W/m² | - |
| 1778079109 | 2.78° C | 83% | 1022.2 hPa | 0 mm | - | 103 W/m² | - |
| 1778078807 | 3.33° C | 77% | 1022.2 hPa | 0 mm | - | 83 W/m² | - |
| 1778078503 | 2.78° C | 78% | 1022.3 hPa | 0 mm | - | 126 W/m² | - |
| 1778078201 | 2.22° C | 80% | 1022.5 hPa | 0 mm | - | 288 W/m² | - |
| 1778077899 | 3.33° C | 77% | 1022.4 hPa | 0 mm | - | 223 W/m² | - |
| 1778077597 | 2.22° C | 83% | 1022.4 hPa | 0 mm | - | 206 W/m² | - |
| 1778077295 | 1.67° C | 83% | 1022.5 hPa | 0 mm | - | 188 W/m² | - |
| 1778076992 | 0.56° C | 87% | 1022.6 hPa | 0 mm | - | 173 W/m² | - |
| 1778076690 | 0° C | 89% | 1022.6 hPa | 0 mm | - | 133 W/m² | - |
| 1778076388 | -1.11° C | 94% | 1022.6 hPa | 0 mm | - | 148 W/m² | - |
| 1778076085 | -1.11° C | 96% | 1022.5 hPa | 0 mm | - | 142 W/m² | - |
* Rain latest hour (hover to see other rain measurements)
** Current wind speed in m/s (hover to see current wind gust speed)